Terminal Aerodrome Forecast
Issued by NWS

Home | Current Version | Previous Version | Text Only | Print | Product List | Glossary On
Versions: 1 2 3 4 5 6 7 8 9 10 11 12 13 14 15 16 17 18 19 20 21 22 23 24 25 26 27 28 29 30 31 32 33 34 35 36 37
189
FTUS43 KPAH 302108 AAA
TAFOWB
TAF AMD
KOWB 302108Z 3021/3118 20013G21KT P6SM VCTS SCT035CB BKN060
      TEMPO 3022/3024 3SM TSRA BR BKN015CB
     FM310000 23009KT P6SM SCT040
     FM310500 23006KT P6SM VCSH SCT025 BKN040
     FM311100 24007KT P6SM OVC015
     FM311600 26012G19KT P6SM OVC025=

USA.gov is the U.S. government's official web portal to all federal, state and local government web resources and services.